createdAt,value
2022-11-05T00:03:37.236Z,8.00
2022-11-05T00:08:08.145Z,8.10
2022-11-05T00:12:33.766Z,8.20
2022-11-05T00:16:46.736Z,8.00
2022-11-05T00:20:53.406Z,8.20
2022-11-05T00:25:16.562Z,8.30
2022-11-05T00:29:23.231Z,8.30
2022-11-05T00:33:31.385Z,8.30
2022-11-05T00:37:38.397Z,8.30
2022-11-05T00:42:05.035Z,8.20
2022-11-05T00:46:12.299Z,8.20
2022-11-05T00:50:21.632Z,8.10
2022-11-05T00:54:28.456Z,8.10
2022-11-05T00:58:35.234Z,8.00
2022-11-05T01:02:42.027Z,7.90
2022-11-05T01:06:48.922Z,7.90
2022-11-05T01:10:57.685Z,7.80
2022-11-05T01:15:04.920Z,7.80
2022-11-05T01:19:12.102Z,7.70
2022-11-05T01:23:19.077Z,7.70
2022-11-05T01:27:26.070Z,7.60
2022-11-05T01:31:32.727Z,7.60
2022-11-05T01:35:39.450Z,7.50
2022-11-05T01:39:46.117Z,7.50
2022-11-05T01:43:56.520Z,7.50
2022-11-05T01:48:11.113Z,7.40
2022-11-05T01:52:18.546Z,7.40
2022-11-05T01:56:40.949Z,7.30
2022-11-05T02:00:47.987Z,7.30
2022-11-05T02:04:59.969Z,7.20
2022-11-05T02:09:17.442Z,7.20
2022-11-05T02:13:24.098Z,7.20
2022-11-05T02:17:47.144Z,7.10
2022-11-05T02:22:30.736Z,7.00
2022-11-05T02:26:49.686Z,7.00
2022-11-05T02:31:11.676Z,6.90
2022-11-05T02:35:32.344Z,6.90
2022-11-05T02:39:50.997Z,6.80
2022-11-05T02:44:18.938Z,6.80
2022-11-05T02:48:31.428Z,6.90
2022-11-05T02:52:47.278Z,6.80
2022-11-05T02:56:56.761Z,6.70
2022-11-05T03:01:06.874Z,6.70
2022-11-05T03:05:13.715Z,6.60
2022-11-05T03:09:34.760Z,6.60
2022-11-05T03:14:07.949Z,6.60
2022-11-05T03:18:24.259Z,6.50
2022-11-05T03:22:38.501Z,6.50
2022-11-05T03:27:03.907Z,6.50
2022-11-05T03:31:13.294Z,6.50
2022-11-05T03:35:27.026Z,6.40
2022-11-05T03:39:38.360Z,6.30
2022-11-05T03:43:52.131Z,6.30
2022-11-05T03:48:01.792Z,6.20
2022-11-05T03:52:14.446Z,6.10
2022-11-05T03:56:26.936Z,6.20
2022-11-05T04:00:33.917Z,6.10
2022-11-05T04:04:40.949Z,6.20
2022-11-05T04:09:06.752Z,6.20
2022-11-05T04:13:25.617Z,6.20
2022-11-05T04:17:32.495Z,6.10
2022-11-05T04:21:57.855Z,6.10
2022-11-05T04:26:04.605Z,6.10
2022-11-05T04:30:18.741Z,6.00
2022-11-05T04:34:25.457Z,6.00
2022-11-05T04:38:32.184Z,6.10
2022-11-05T04:42:38.968Z,6.10
2022-11-05T04:46:45.658Z,6.10
2022-11-05T04:50:52.309Z,6.10
2022-11-05T04:54:58.974Z,6.10
2022-11-05T04:59:05.662Z,6.10
2022-11-05T05:03:12.681Z,6.20
2022-11-05T05:07:19.665Z,6.20
2022-11-05T05:11:26.326Z,6.20
2022-11-05T05:15:32.999Z,6.10
2022-11-05T05:19:58.181Z,6.00
2022-11-05T05:24:11.268Z,5.90
2022-11-05T05:28:17.910Z,5.90
2022-11-05T05:32:25.324Z,5.90
2022-11-05T05:36:32.126Z,5.80
2022-11-05T05:40:38.798Z,5.80
2022-11-05T05:44:45.511Z,5.80
2022-11-05T05:48:52.714Z,5.90
2022-11-05T05:52:59.486Z,5.90
2022-11-05T05:57:06.159Z,6.00
2022-11-05T06:01:18.923Z,5.90
2022-11-05T06:05:26.506Z,6.00
2022-11-05T06:09:33.199Z,5.90
2022-11-05T06:13:39.898Z,6.00
2022-11-05T06:17:46.572Z,6.00
2022-11-05T06:21:53.228Z,6.00
2022-11-05T06:26:07.503Z,6.00
2022-11-05T06:30:14.312Z,6.00
2022-11-05T06:34:21.012Z,6.00
2022-11-05T06:38:29.248Z,6.00
2022-11-05T06:42:36.137Z,5.90
2022-11-05T06:46:47.383Z,5.80
2022-11-05T06:50:55.597Z,5.80
2022-11-05T06:55:02.262Z,5.90
2022-11-05T06:59:09.100Z,5.90
2022-11-05T07:03:15.956Z,5.90
2022-11-05T07:07:22.609Z,6.00
2022-11-05T07:11:29.291Z,6.00
2022-11-05T07:15:36.608Z,6.10
2022-11-05T07:19:43.392Z,6.20
2022-11-05T07:23:50.084Z,6.30
2022-11-05T07:27:56.796Z,6.40
2022-11-05T07:32:03.554Z,6.60
2022-11-05T07:36:10.221Z,6.60
2022-11-05T07:40:19.167Z,6.80
2022-11-05T07:44:25.831Z,7.00
2022-11-05T07:48:32.462Z,7.10
2022-11-05T07:52:39.166Z,7.20
2022-11-05T07:56:47.559Z,7.30
2022-11-05T08:00:54.394Z,7.50
2022-11-05T08:05:01.173Z,7.60
2022-11-05T08:09:08.105Z,7.80
2022-11-05T08:13:15.427Z,8.00
2022-11-05T08:17:22.669Z,8.20
2022-11-05T08:21:29.878Z,8.40
2022-11-05T08:25:38.178Z,8.60
2022-11-05T08:29:45.098Z,8.80
2022-11-05T08:33:52.346Z,9.00
2022-11-05T08:38:06.537Z,9.20
2022-11-05T08:42:13.284Z,9.40
2022-11-05T08:46:21.026Z,9.80
2022-11-05T08:50:29.061Z,10.10
2022-11-05T08:54:36.131Z,11.10
2022-11-05T08:58:42.850Z,10.50
2022-11-05T09:02:49.552Z,10.60
2022-11-05T09:06:56.277Z,10.70
2022-11-05T09:11:02.943Z,10.90
2022-11-05T09:15:09.957Z,11.10
2022-11-05T09:19:17.721Z,11.20
2022-11-05T09:23:24.420Z,11.30
2022-11-05T09:27:31.802Z,11.40
2022-11-05T09:31:40.477Z,11.60
2022-11-05T09:35:47.462Z,11.70
2022-11-05T09:39:54.651Z,11.90
2022-11-05T09:44:05.877Z,12.00
2022-11-05T09:48:16.826Z,12.20
2022-11-05T09:52:29.415Z,12.40
2022-11-05T09:56:40.718Z,12.50
2022-11-05T10:00:50.959Z,12.60
2022-11-05T10:05:08.130Z,12.80
2022-11-05T10:09:23.901Z,13.00
2022-11-05T10:13:50.535Z,13.10
2022-11-05T10:18:04.863Z,13.10
2022-11-05T10:22:16.417Z,13.10
2022-11-05T10:26:27.132Z,13.20
2022-11-05T10:30:34.297Z,13.30
2022-11-05T10:34:42.369Z,13.30
2022-11-05T10:38:49.960Z,13.20
2022-11-05T10:43:27.705Z,13.20
2022-11-05T10:47:54.329Z,13.30
2022-11-05T10:52:16.848Z,13.40
2022-11-05T10:56:43.746Z,13.40
2022-11-05T11:00:53.214Z,13.20
2022-11-05T11:04:59.968Z,13.20
2022-11-05T11:09:20.014Z,13.00
2022-11-05T11:13:52.300Z,12.90
2022-11-05T11:18:17.451Z,12.80
2022-11-05T11:22:24.100Z,12.70
2022-11-05T11:26:38.700Z,12.80
2022-11-05T11:30:57.017Z,12.80
2022-11-05T11:35:05.600Z,13.00
2022-11-05T11:39:21.735Z,13.00
2022-11-05T11:43:31.160Z,13.00
2022-11-05T11:47:44.464Z,13.00
2022-11-05T11:51:59.721Z,13.00
2022-11-05T11:56:16.957Z,12.90
2022-11-05T12:00:26.854Z,12.90
2022-11-05T12:05:11.029Z,12.90
2022-11-05T12:09:57.880Z,12.80
2022-11-05T12:14:33.139Z,12.80
2022-11-05T12:18:39.809Z,12.80
2022-11-05T12:23:22.335Z,12.80
2022-11-05T12:27:59.423Z,12.80
2022-11-05T12:32:30.768Z,12.70
2022-11-05T12:36:51.704Z,12.60
2022-11-05T12:41:15.996Z,12.50
2022-11-05T12:45:57.270Z,12.50
2022-11-05T12:50:15.476Z,12.50
2022-11-05T12:55:03.558Z,12.40
2022-11-05T12:59:36.249Z,12.40
2022-11-05T13:03:49.752Z,12.40
2022-11-05T13:08:19.926Z,12.50
2022-11-05T13:12:30.047Z,12.40
2022-11-05T13:16:45.171Z,12.50
2022-11-05T13:20:54.485Z,12.50
2022-11-05T13:25:18.607Z,12.40
2022-11-05T13:29:48.802Z,12.50
2022-11-05T13:33:57.044Z,12.50
2022-11-05T13:38:27.994Z,12.50
2022-11-05T13:42:43.695Z,12.50
2022-11-05T13:47:21.526Z,12.40
2022-11-05T13:51:39.517Z,12.40
2022-11-05T13:55:58.935Z,12.40
2022-11-05T14:00:23.927Z,12.30
2022-11-05T14:04:46.938Z,12.20
2022-11-05T14:08:59.490Z,12.10
2022-11-05T14:13:20.631Z,12.10
2022-11-05T14:17:32.784Z,12.00
2022-11-05T14:21:52.738Z,12.00
2022-11-05T14:26:30.102Z,11.90
2022-11-05T14:30:41.572Z,11.90
2022-11-05T14:35:17.515Z,11.90
2022-11-05T14:39:27.992Z,11.80
2022-11-05T14:43:36.215Z,11.80
2022-11-05T14:47:52.385Z,11.80
2022-11-05T14:52:06.464Z,11.70
2022-11-05T14:56:16.224Z,11.80
2022-11-05T15:00:28.658Z,11.60
2022-11-05T15:04:36.268Z,11.70
2022-11-05T15:08:48.990Z,11.70
2022-11-05T15:13:03.807Z,11.50
2022-11-05T15:17:48.993Z,11.30
2022-11-05T15:21:59.700Z,11.20
2022-11-05T15:26:10.828Z,11.00
2022-11-05T15:30:23.013Z,10.90
2022-11-05T15:34:32.785Z,10.80
2022-11-05T15:38:41.344Z,10.80
2022-11-05T15:43:17.616Z,10.80
2022-11-05T15:47:30.954Z,10.70
2022-11-05T15:51:37.681Z,10.70
2022-11-05T15:55:54.619Z,10.60
2022-11-05T16:00:08.086Z,10.50
2022-11-05T16:04:27.467Z,10.50
2022-11-05T16:08:34.727Z,10.50
2022-11-05T16:12:41.407Z,10.50
2022-11-05T16:16:48.144Z,10.40
2022-11-05T16:21:02.578Z,10.40
2022-11-05T16:25:34.712Z,10.40
2022-11-05T16:29:52.389Z,10.40
2022-11-05T16:33:59.477Z,10.40
2022-11-05T16:38:06.331Z,10.40
2022-11-05T16:42:35.703Z,10.40
2022-11-05T16:46:48.559Z,10.40
2022-11-05T16:50:55.368Z,10.40
2022-11-05T16:55:02.035Z,10.50
2022-11-05T16:59:12.390Z,10.50
2022-11-05T17:03:19.081Z,10.50
2022-11-05T17:07:25.748Z,10.50
2022-11-05T17:11:32.430Z,10.50
2022-11-05T17:15:39.112Z,10.50
2022-11-05T17:19:46.034Z,10.50
2022-11-05T17:23:52.704Z,10.50
2022-11-05T17:27:59.577Z,10.50
2022-11-05T17:32:06.467Z,10.50
2022-11-05T17:36:15.521Z,10.60
2022-11-05T17:40:23.648Z,10.50
2022-11-05T17:44:30.360Z,10.50
2022-11-05T17:48:38.167Z,10.50
2022-11-05T17:52:44.918Z,10.50
2022-11-05T17:56:51.615Z,10.50
2022-11-05T18:00:58.248Z,10.50
2022-11-05T18:05:05.867Z,10.40
2022-11-05T18:09:13.208Z,10.40
2022-11-05T18:13:19.899Z,10.40
2022-11-05T18:17:26.591Z,10.50
2022-11-05T18:21:33.273Z,10.40
2022-11-05T18:25:41.229Z,10.50
2022-11-05T18:29:48.149Z,10.50
2022-11-05T18:33:57.653Z,10.50
2022-11-05T18:38:04.320Z,10.50
2022-11-05T18:42:11.352Z,10.50
2022-11-05T18:46:43.019Z,10.50
2022-11-05T18:50:45.184Z,10.50
2022-11-05T18:54:52.281Z,10.50
2022-11-05T18:59:30.083Z,10.50
2022-11-05T19:03:25.616Z,10.50
2022-11-05T19:07:35.173Z,10.50
2022-11-05T19:11:41.883Z,10.50
2022-11-05T19:15:48.551Z,10.50
2022-11-05T19:19:55.433Z,10.40
2022-11-05T19:24:03.236Z,10.50
2022-11-05T19:28:10.179Z,10.50
2022-11-05T19:32:17.207Z,10.50
2022-11-05T19:36:25.274Z,10.50
2022-11-05T19:40:31.936Z,10.50
2022-11-05T19:44:38.761Z,10.60
2022-11-05T19:48:46.127Z,10.60
2022-11-05T19:52:52.912Z,10.60
2022-11-05T19:56:59.726Z,10.60
2022-11-05T20:01:06.881Z,10.60
2022-11-05T20:05:14.857Z,10.60
2022-11-05T20:09:23.200Z,10.70
2022-11-05T20:13:30.873Z,10.70
2022-11-05T20:17:39.227Z,10.70
2022-11-05T20:21:46.117Z,10.70
2022-11-05T20:25:54.259Z,10.70
2022-11-05T20:30:01.094Z,10.70
2022-11-05T20:34:08.908Z,10.60
2022-11-05T20:38:15.652Z,10.70
2022-11-05T20:42:22.336Z,10.70
2022-11-05T20:46:29.103Z,10.70
2022-11-05T20:50:40.229Z,10.70
2022-11-05T20:54:47.103Z,10.80
2022-11-05T20:58:53.951Z,10.70
2022-11-05T21:03:00.760Z,10.70
2022-11-05T21:07:07.564Z,10.70
2022-11-05T21:11:14.536Z,10.70
2022-11-05T21:15:23.171Z,10.70
2022-11-05T21:19:34.437Z,10.70
2022-11-05T21:23:41.837Z,10.60
2022-11-05T21:27:48.540Z,10.60
2022-11-05T21:31:55.205Z,10.60
2022-11-05T21:36:07.729Z,10.50
2022-11-05T21:40:14.506Z,10.50
2022-11-05T21:44:21.212Z,10.40
2022-11-05T21:48:28.028Z,10.40
2022-11-05T21:52:53.183Z,10.40
2022-11-05T21:57:18.490Z,10.30
2022-11-05T22:01:25.375Z,10.20
2022-11-05T22:05:32.265Z,10.20
2022-11-05T22:09:39.202Z,10.20
2022-11-05T22:13:45.855Z,10.10
2022-11-05T22:17:52.519Z,10.10
2022-11-05T22:21:59.273Z,10.00
2022-11-05T22:26:06.063Z,9.90
2022-11-05T22:30:14.227Z,9.90
2022-11-05T22:34:21.475Z,10.00
2022-11-05T22:38:29.896Z,10.00
2022-11-05T22:42:36.775Z,10.00
2022-11-05T22:46:43.602Z,9.90
2022-11-05T22:50:50.391Z,9.90
2022-11-05T22:54:57.056Z,9.90
2022-11-05T22:59:04.451Z,9.90
2022-11-05T23:03:11.249Z,9.90
2022-11-05T23:07:36.811Z,9.80
2022-11-05T23:11:46.377Z,9.80
2022-11-05T23:16:11.879Z,9.80
2022-11-05T23:20:42.413Z,9.80
2022-11-05T23:24:49.118Z,9.80
2022-11-05T23:28:55.769Z,9.80
2022-11-05T23:33:02.573Z,9.70
2022-11-05T23:37:28.369Z,9.70
2022-11-05T23:41:53.913Z,9.70
2022-11-05T23:46:19.521Z,9.70
2022-11-05T23:50:26.480Z,9.60
2022-11-05T23:54:33.139Z,9.50
2022-11-05T23:58:41.133Z,9.60
